createdAt,value
2023-01-19T00:02:01.174Z,11.45
2023-01-19T00:05:03.985Z,9.98
2023-01-19T00:11:18.937Z,11.90
2023-01-19T00:14:20.434Z,12.65
2023-01-19T00:17:21.896Z,13.95
2023-01-19T00:20:23.593Z,14.85
2023-01-19T00:23:25.080Z,11.07
2023-01-19T00:26:26.603Z,13.93
2023-01-19T00:29:30.795Z,12.25
2023-01-19T00:32:32.267Z,9.82
2023-01-19T00:35:34.544Z,15.35
2023-01-19T00:38:35.999Z,9.00
2023-01-19T00:41:55.947Z,10.40
2023-01-19T00:44:57.477Z,10.60
2023-01-19T00:47:58.941Z,12.57
2023-01-19T00:51:00.409Z,9.80
2023-01-19T00:54:04.860Z,12.77
2023-01-19T00:57:06.511Z,9.57
2023-01-19T01:00:11.582Z,12.02
2023-01-19T01:03:13.100Z,9.57
2023-01-19T01:06:14.657Z,8.38
2023-01-19T01:09:16.156Z,8.52
2023-01-19T01:12:17.636Z,8.88
2023-01-19T01:15:19.398Z,12.38
2023-01-19T01:18:21.010Z,10.95
2023-01-19T01:21:23.649Z,11.90
2023-01-19T01:24:25.121Z,11.40
2023-01-19T01:27:26.578Z,12.18
2023-01-19T01:30:28.049Z,18.10
2023-01-19T01:33:41.256Z,15.98
2023-01-19T01:36:43.552Z,12.75
2023-01-19T01:39:45.030Z,19.83
2023-01-19T01:42:46.668Z,12.43
2023-01-19T01:45:48.394Z,11.60
2023-01-19T01:48:57.341Z,12.50
2023-01-19T01:51:58.802Z,10.52
2023-01-19T01:55:00.466Z,10.48
2023-01-19T01:58:03.065Z,9.55
2023-01-19T02:01:23.805Z,8.52
2023-01-19T02:04:25.368Z,7.60
2023-01-19T02:07:50.444Z,7.85
2023-01-19T02:11:10.434Z,11.85
2023-01-19T02:14:11.930Z,17.40
2023-01-19T02:17:13.976Z,11.25
2023-01-19T02:20:16.199Z,11.85
2023-01-19T02:23:24.800Z,10.57
2023-01-19T02:26:28.166Z,12.85
2023-01-19T02:29:29.653Z,12.95
2023-01-19T02:32:31.113Z,14.25
2023-01-19T02:35:32.635Z,15.35
2023-01-19T02:38:35.037Z,9.23
2023-01-19T02:41:48.061Z,9.90
2023-01-19T02:44:50.391Z,17.58
2023-01-19T02:47:52.348Z,8.20
2023-01-19T02:50:56.798Z,16.73
2023-01-19T02:54:41.032Z,10.82
2023-01-19T02:57:57.404Z,11.57
2023-01-19T03:01:09.620Z,15.45
2023-01-19T03:04:29.890Z,10.13
2023-01-19T03:07:50.663Z,10.82
2023-01-19T03:11:03.547Z,12.43
2023-01-19T03:14:08.952Z,13.10
2023-01-19T03:17:10.444Z,15.48
2023-01-19T03:20:13.924Z,10.15
2023-01-19T03:23:15.408Z,10.05
2023-01-19T03:26:19.563Z,12.20
2023-01-19T03:29:21.027Z,10.25
2023-01-19T03:32:25.827Z,13.18
2023-01-19T03:35:29.646Z,12.25
2023-01-19T03:38:34.108Z,7.95
2023-01-19T03:41:35.585Z,10.43
2023-01-19T03:44:37.625Z,11.95
2023-01-19T03:47:39.076Z,8.57
2023-01-19T03:50:40.636Z,11.48
2023-01-19T03:53:42.118Z,8.80
2023-01-19T03:56:44.809Z,9.20
2023-01-19T03:59:46.287Z,11.10
2023-01-19T04:02:47.828Z,10.65
2023-01-19T04:05:49.623Z,11.05
2023-01-19T04:08:51.198Z,11.77
2023-01-19T04:11:52.966Z,12.52
2023-01-19T04:14:54.532Z,11.93
2023-01-19T04:17:59.702Z,8.00
2023-01-19T04:21:01.975Z,10.85
2023-01-19T04:24:03.502Z,13.07
2023-01-19T04:27:04.961Z,14.75
2023-01-19T04:30:07.439Z,12.25
2023-01-19T04:33:08.970Z,10.10
2023-01-19T04:36:10.505Z,10.63
2023-01-19T04:39:12.327Z,8.27
2023-01-19T04:42:13.783Z,9.17
2023-01-19T04:45:15.415Z,14.75
2023-01-19T04:48:18.348Z,11.38
2023-01-19T04:51:19.824Z,9.10
2023-01-19T04:54:21.694Z,11.63
2023-01-19T04:57:23.175Z,12.55
2023-01-19T05:00:24.673Z,12.57
2023-01-19T05:03:26.963Z,15.18
2023-01-19T05:06:28.513Z,23.45
2023-01-19T05:09:30.031Z,25.17
2023-01-19T05:12:31.559Z,24.67
2023-01-19T05:15:33.052Z,19.00
2023-01-19T05:18:37.031Z,34.35
2023-01-19T05:21:38.707Z,20.85
2023-01-19T05:24:40.193Z,34.42
2023-01-19T05:27:41.649Z,17.45
2023-01-19T05:30:43.152Z,22.63
2023-01-19T05:33:44.617Z,19.52
2023-01-19T05:36:46.102Z,18.27
2023-01-19T05:39:47.564Z,31.38
2023-01-19T05:42:49.031Z,39.90
2023-01-19T05:45:50.532Z,32.13
2023-01-19T05:48:51.981Z,12.07
2023-01-19T05:51:53.463Z,18.08
2023-01-19T05:54:55.208Z,10.52
2023-01-19T05:57:56.670Z,10.48
2023-01-19T06:01:01.647Z,11.60
2023-01-19T06:04:03.303Z,9.30
2023-01-19T06:07:06.540Z,16.63
2023-01-19T06:10:08.806Z,8.65
2023-01-19T06:13:11.156Z,11.30
2023-01-19T06:16:12.706Z,17.92
2023-01-19T06:19:14.936Z,11.82
2023-01-19T06:22:16.446Z,8.07
2023-01-19T06:25:17.904Z,6.88
2023-01-19T06:28:19.395Z,10.48
2023-01-19T06:31:20.903Z,8.90
2023-01-19T06:34:22.416Z,7.65
2023-01-19T06:37:26.729Z,8.35
2023-01-19T06:40:28.219Z,7.50
2023-01-19T06:43:29.743Z,9.85
2023-01-19T06:46:31.642Z,11.05
2023-01-19T06:49:33.173Z,7.40
2023-01-19T06:52:42.053Z,7.95
2023-01-19T06:55:44.037Z,9.82
2023-01-19T06:58:47.297Z,9.93
2023-01-19T07:01:48.834Z,12.57
2023-01-19T07:04:50.364Z,10.88
2023-01-19T07:07:52.875Z,9.00
2023-01-19T07:11:25.618Z,6.22
2023-01-19T07:14:21.153Z,5.85
2023-01-19T07:17:22.703Z,8.57
2023-01-19T07:20:24.190Z,6.50
2023-01-19T07:23:25.673Z,11.25
2023-01-19T07:26:28.215Z,11.00
2023-01-19T07:29:29.761Z,9.02
2023-01-19T07:32:31.211Z,9.25
2023-01-19T07:35:32.715Z,8.80
2023-01-19T07:38:34.398Z,19.80
2023-01-19T07:41:35.887Z,15.88
2023-01-19T07:44:37.370Z,6.68
2023-01-19T07:47:38.867Z,10.65
2023-01-19T07:50:40.526Z,8.05
2023-01-19T07:53:42.183Z,7.07
2023-01-19T07:56:43.689Z,7.75
2023-01-19T07:59:45.166Z,9.82
2023-01-19T08:02:49.813Z,15.18
2023-01-19T08:05:52.083Z,6.32
2023-01-19T08:08:53.564Z,10.05
2023-01-19T08:11:55.063Z,8.90
2023-01-19T08:14:56.527Z,8.95
2023-01-19T08:17:58.558Z,10.77
2023-01-19T08:21:00.229Z,6.93
2023-01-19T08:24:01.772Z,7.93
2023-01-19T08:27:04.398Z,7.78
2023-01-19T08:30:06.457Z,8.20
2023-01-19T08:33:08.273Z,10.82
2023-01-19T08:36:09.831Z,8.53
2023-01-19T08:39:12.206Z,8.88
2023-01-19T08:42:13.693Z,10.18
2023-01-19T08:45:15.187Z,6.95
2023-01-19T08:48:17.899Z,6.03
2023-01-19T08:54:21.736Z,9.15
2023-01-19T08:57:23.241Z,8.98
2023-01-19T09:00:27.499Z,7.10
2023-01-19T09:03:29.024Z,5.35
2023-01-19T09:06:30.557Z,11.63
2023-01-19T09:09:32.033Z,9.05
2023-01-19T09:12:33.483Z,10.13
2023-01-19T09:15:37.488Z,9.45
2023-01-19T09:18:39.142Z,6.90
2023-01-19T09:21:40.622Z,8.65
2023-01-19T09:24:42.151Z,6.90
2023-01-19T09:27:43.653Z,14.07
2023-01-19T09:30:45.238Z,6.13
2023-01-19T09:33:46.783Z,5.22
2023-01-19T09:36:48.523Z,6.85
2023-01-19T09:39:50.074Z,9.00
2023-01-19T09:42:57.456Z,7.57
2023-01-19T09:45:59.696Z,7.63
2023-01-19T09:49:04.883Z,8.77
2023-01-19T09:52:09.309Z,7.63
2023-01-19T09:55:20.121Z,4.93
2023-01-19T09:58:21.612Z,7.43
2023-01-19T10:02:05.075Z,8.13
2023-01-19T10:08:38.799Z,10.85
2023-01-19T10:11:52.590Z,9.45
2023-01-19T10:15:25.198Z,8.90
2023-01-19T10:18:43.281Z,8.32
2023-01-19T10:21:44.826Z,16.55
2023-01-19T10:24:46.310Z,7.10
2023-01-19T10:27:47.955Z,5.53
2023-01-19T10:30:49.467Z,7.90
2023-01-19T10:33:51.263Z,17.10
2023-01-19T10:36:58.690Z,5.30
2023-01-19T10:40:09.262Z,8.75
2023-01-19T10:43:40.043Z,7.75
2023-01-19T10:46:48.203Z,7.50
2023-01-19T10:49:49.913Z,10.05
2023-01-19T10:52:52.936Z,8.90
2023-01-19T10:56:36.396Z,8.57
2023-01-19T11:02:40.201Z,9.03
2023-01-19T11:05:42.115Z,10.68
2023-01-19T11:08:43.804Z,5.83
2023-01-19T11:11:47.487Z,6.93
2023-01-19T11:14:49.536Z,8.85
2023-01-19T11:17:51.892Z,6.55
2023-01-19T11:20:54.501Z,7.43
2023-01-19T11:27:03.624Z,8.40
2023-01-19T11:30:09.929Z,5.15
2023-01-19T11:33:27.071Z,7.07
2023-01-19T11:36:35.605Z,6.57
2023-01-19T11:39:53.558Z,7.53
2023-01-19T11:42:55.007Z,5.25
2023-01-19T11:45:56.881Z,6.13
2023-01-19T11:49:21.550Z,4.93
2023-01-19T11:52:27.339Z,6.35
2023-01-19T11:55:43.679Z,6.35
2023-01-19T11:58:47.992Z,5.78
2023-01-19T12:01:55.594Z,5.85
2023-01-19T12:05:00.074Z,7.28
2023-01-19T12:08:06.562Z,9.10
2023-01-19T12:11:09.731Z,7.03
2023-01-19T12:14:17.892Z,8.40
2023-01-19T12:17:36.748Z,9.82
2023-01-19T12:20:46.649Z,5.25
2023-01-19T12:24:01.265Z,12.38
2023-01-19T12:27:07.763Z,9.70
2023-01-19T12:30:21.462Z,8.88
2023-01-19T12:33:23.603Z,9.50
2023-01-19T12:36:35.561Z,9.10
2023-01-19T12:39:45.819Z,5.10
2023-01-19T12:42:49.078Z,5.25
2023-01-19T12:45:50.585Z,5.43
2023-01-19T12:48:52.311Z,8.48
2023-01-19T12:51:56.077Z,9.70
2023-01-19T12:55:12.693Z,7.95
2023-01-19T12:58:17.780Z,20.10
2023-01-19T13:01:21.414Z,10.48
2023-01-19T13:04:29.789Z,14.15
2023-01-19T13:07:31.269Z,11.70
2023-01-19T13:11:00.749Z,10.73
2023-01-19T13:14:02.228Z,6.32
2023-01-19T13:17:05.332Z,5.38
2023-01-19T13:20:19.314Z,5.72
2023-01-19T13:23:52.257Z,9.48
2023-01-19T13:26:58.892Z,6.53
2023-01-19T13:30:01.539Z,13.00
2023-01-19T13:33:13.199Z,7.88
2023-01-19T13:36:35.807Z,7.35
2023-01-19T13:39:40.035Z,5.85
2023-01-19T13:42:41.553Z,4.63
2023-01-19T13:45:50.312Z,2.95
2023-01-19T13:48:57.540Z,8.60
2023-01-19T13:52:12.624Z,5.28
2023-01-19T13:55:14.722Z,9.55
2023-01-19T13:58:23.434Z,10.40
2023-01-19T14:01:28.716Z,5.40
2023-01-19T14:04:34.062Z,12.45
2023-01-19T14:07:35.529Z,7.55
2023-01-19T14:10:50.151Z,7.68
2023-01-19T14:13:51.636Z,8.68
2023-01-19T14:16:53.293Z,9.95
2023-01-19T14:19:58.766Z,8.98
2023-01-19T14:23:00.291Z,15.27
2023-01-19T14:26:01.750Z,13.85
2023-01-19T14:29:12.154Z,10.48
2023-01-19T14:32:21.243Z,5.90
2023-01-19T14:35:25.934Z,6.88
2023-01-19T14:38:27.397Z,10.55
2023-01-19T14:41:39.052Z,10.38
2023-01-19T14:44:40.544Z,9.15
2023-01-19T14:47:43.195Z,7.30
2023-01-19T14:51:01.962Z,13.60
2023-01-19T14:54:04.881Z,19.05
2023-01-19T14:57:10.955Z,15.93
2023-01-19T15:00:19.710Z,7.60
2023-01-19T15:03:24.939Z,14.80
2023-01-19T15:06:28.317Z,9.00
2023-01-19T15:09:29.808Z,6.97
2023-01-19T15:12:31.260Z,7.72
2023-01-19T15:15:33.599Z,16.63
2023-01-19T15:18:35.073Z,7.35
2023-01-19T15:21:37.509Z,7.78
2023-01-19T15:24:40.823Z,10.20
2023-01-19T15:27:43.116Z,18.52
2023-01-19T15:30:44.652Z,29.40
2023-01-19T15:33:46.139Z,12.60
2023-01-19T15:36:47.626Z,28.38
2023-01-19T15:39:49.196Z,31.60
2023-01-19T15:42:50.772Z,24.95
2023-01-19T15:46:00.785Z,22.98
2023-01-19T15:49:02.316Z,14.85
2023-01-19T15:52:05.372Z,9.10
2023-01-19T15:55:09.963Z,15.05
2023-01-19T15:58:13.870Z,12.18
2023-01-19T16:01:16.954Z,10.27
2023-01-19T16:04:18.537Z,12.32
2023-01-19T16:07:20.097Z,12.57
2023-01-19T16:10:21.728Z,8.88
2023-01-19T16:13:23.228Z,15.23
2023-01-19T16:16:25.401Z,7.95
2023-01-19T16:19:26.886Z,8.23
2023-01-19T16:22:28.563Z,8.43
2023-01-19T16:25:31.045Z,9.73
2023-01-19T16:28:32.508Z,7.50
2023-01-19T16:31:34.069Z,7.30
2023-01-19T16:34:35.549Z,14.68
2023-01-19T16:37:37.044Z,8.52
2023-01-19T16:40:38.595Z,8.65
2023-01-19T16:43:40.270Z,10.05
2023-01-19T16:46:43.379Z,7.97
2023-01-19T16:49:44.886Z,7.53
2023-01-19T16:52:46.407Z,6.15
2023-01-19T16:55:48.700Z,12.25
2023-01-19T16:58:59.373Z,12.02
2023-01-19T17:02:00.941Z,12.02
2023-01-19T17:05:02.486Z,11.13
2023-01-19T17:08:04.071Z,8.43
2023-01-19T17:11:13.459Z,10.73
2023-01-19T17:14:20.276Z,11.00
2023-01-19T17:17:21.788Z,10.32
2023-01-19T17:20:23.294Z,11.38
2023-01-19T17:23:24.765Z,7.70
2023-01-19T17:26:28.213Z,6.63
2023-01-19T17:29:29.692Z,10.43
2023-01-19T17:32:31.237Z,11.00
2023-01-19T17:35:34.386Z,9.25
2023-01-19T17:38:36.300Z,15.07
2023-01-19T17:41:37.776Z,15.40
2023-01-19T17:44:39.233Z,10.07
2023-01-19T17:47:40.690Z,12.25
2023-01-19T17:50:42.151Z,14.38
2023-01-19T17:53:43.609Z,15.45
2023-01-19T17:56:45.093Z,9.75
2023-01-19T17:59:47.704Z,12.00
2023-01-19T18:02:50.756Z,12.55
2023-01-19T18:05:55.680Z,14.63
2023-01-19T18:08:57.163Z,24.55
2023-01-19T18:11:58.661Z,14.27
2023-01-19T18:15:00.155Z,16.45
2023-01-19T18:18:01.673Z,14.65
2023-01-19T18:21:07.589Z,11.63
2023-01-19T18:24:09.130Z,23.75
2023-01-19T18:27:10.903Z,13.70
2023-01-19T18:30:13.075Z,12.90
2023-01-19T18:33:14.682Z,10.32
2023-01-19T18:36:16.644Z,13.75
2023-01-19T18:39:18.306Z,14.05
2023-01-19T18:42:19.762Z,10.05
2023-01-19T18:45:21.376Z,12.43
2023-01-19T18:48:22.895Z,13.07
2023-01-19T18:51:24.395Z,11.93
2023-01-19T18:54:25.919Z,7.80
2023-01-19T18:57:27.438Z,11.80
2023-01-19T19:00:28.931Z,15.50
2023-01-19T19:03:30.495Z,17.35
2023-01-19T19:06:32.022Z,15.57
2023-01-19T19:09:33.495Z,16.13
2023-01-19T19:12:35.434Z,12.10
2023-01-19T19:15:36.981Z,10.45
2023-01-19T19:18:38.764Z,19.77
2023-01-19T19:21:40.256Z,9.70
2023-01-19T19:24:41.717Z,9.40
2023-01-19T19:27:45.327Z,8.10
2023-01-19T19:30:48.135Z,14.00
2023-01-19T19:33:50.862Z,14.75
2023-01-19T19:36:52.640Z,4.38
2023-01-19T19:39:55.715Z,11.35
2023-01-19T19:42:58.812Z,14.35
2023-01-19T19:46:01.682Z,14.82
2023-01-19T19:52:04.607Z,10.13
2023-01-19T19:55:07.901Z,10.90
2023-01-19T19:58:09.365Z,9.25
2023-01-19T20:01:12.638Z,11.40
2023-01-19T20:04:14.306Z,12.70
2023-01-19T20:07:17.943Z,13.57
2023-01-19T20:10:19.677Z,10.45
2023-01-19T20:13:22.072Z,13.57
2023-01-19T20:16:23.784Z,8.98
2023-01-19T20:19:25.317Z,10.80
2023-01-19T20:22:26.779Z,8.90
2023-01-19T20:25:28.288Z,10.20
2023-01-19T20:28:29.745Z,6.78
2023-01-19T20:31:31.833Z,6.47
2023-01-19T20:34:33.880Z,8.00
2023-01-19T20:37:35.400Z,7.88
2023-01-19T20:40:36.913Z,13.80
2023-01-19T20:43:38.377Z,15.60
2023-01-19T20:46:40.026Z,7.18
2023-01-19T20:49:42.003Z,16.88
2023-01-19T20:52:43.493Z,12.07
2023-01-19T20:55:44.952Z,14.40
2023-01-19T20:58:46.405Z,12.63
2023-01-19T21:01:48.695Z,14.07
2023-01-19T21:07:54.667Z,14.38
2023-01-19T21:10:56.916Z,9.45
2023-01-19T21:13:58.396Z,14.55
2023-01-19T21:16:59.865Z,7.38
2023-01-19T21:20:01.364Z,6.28
2023-01-19T21:23:02.869Z,6.43
2023-01-19T21:26:04.372Z,7.93
2023-01-19T21:29:05.889Z,11.02
2023-01-19T21:32:07.421Z,19.95
2023-01-19T21:35:09.093Z,19.65
2023-01-19T21:38:10.585Z,13.05
2023-01-19T21:41:12.729Z,10.10
2023-01-19T21:44:14.322Z,11.15
2023-01-19T21:47:15.805Z,14.02
2023-01-19T21:50:17.355Z,15.80
2023-01-19T21:53:18.800Z,15.60
2023-01-19T21:56:20.300Z,22.42
2023-01-19T21:59:21.751Z,36.80
2023-01-19T22:02:37.568Z,28.83
2023-01-19T22:05:39.896Z,28.75
2023-01-19T22:08:41.409Z,32.20
2023-01-19T22:11:42.940Z,26.33
2023-01-19T22:14:44.413Z,13.98
2023-01-19T22:17:45.890Z,15.13
2023-01-19T22:20:47.370Z,17.55
2023-01-19T22:23:52.401Z,10.57
2023-01-19T22:26:53.860Z,21.23
2023-01-19T22:29:55.372Z,20.15
2023-01-19T22:32:56.857Z,25.52
2023-01-19T22:36:10.384Z,35.67
2023-01-19T22:39:12.169Z,24.33
2023-01-19T22:42:13.657Z,23.00
2023-01-19T22:45:15.598Z,11.48
2023-01-19T22:48:17.255Z,9.43
2023-01-19T22:51:18.974Z,13.10
2023-01-19T22:54:22.908Z,7.85
2023-01-19T22:57:24.528Z,12.80
2023-01-19T23:00:26.004Z,10.48
2023-01-19T23:03:27.454Z,8.50
2023-01-19T23:06:30.120Z,12.35
2023-01-19T23:09:31.665Z,9.02
2023-01-19T23:12:33.104Z,6.82
2023-01-19T23:15:34.931Z,7.47
2023-01-19T23:18:36.474Z,14.40
2023-01-19T23:21:37.943Z,8.25
2023-01-19T23:24:39.452Z,10.98
2023-01-19T23:27:40.906Z,11.48
2023-01-19T23:30:42.543Z,6.18
2023-01-19T23:33:44.234Z,9.48
2023-01-19T23:36:45.856Z,7.22
2023-01-19T23:39:47.329Z,7.93
2023-01-19T23:42:48.767Z,8.27
2023-01-19T23:45:50.335Z,6.28
2023-01-19T23:48:51.793Z,9.13
2023-01-19T23:51:53.426Z,9.68
2023-01-19T23:54:54.923Z,7.05
2023-01-19T23:57:56.391Z,10.00
